ADDS METAR Data INFO
IDs: Format: Raw Decoded Include TAF

Data at: 1809 UTC 18 Feb 2018

KCEC 181756Z AUTO 30015KT 8SM -RA BKN039 BKN050 OVC060 08/03 A3002 RMK AO2 PK WND 32028/1725 RAB28 SLP167 P0001 60008 T00780028 10094 20061 51005
KCEC 181656Z AUTO 33009G19KT 10SM SCT027 BKN039 OVC075 08/03 A3002 RMK AO2 PK WND 33033/1614 RAB11E40 SLP166 P0003 T00780033
KCEC 181639Z AUTO 32015KT 10SM -RA FEW019 BKN034 OVC060 07/03 A3002 RMK AO2 PK WND 33033/1614 RAB11 P0003 T00720028
KCEC 181632Z AUTO 33014G27KT 6SM -RA FEW019 BKN028 OVC050 06/03 A3002 RMK AO2 PK WND 33033/1614 RAB11 P0003 T00610028
KCEC 181621Z AUTO 34015G33KT 2 1/2SM RA FEW018 BKN026 OVC065 06/03 A3003 RMK AO2 PK WND 33033/1614 RAB11 P0002 T00610033
KCEC 181556Z AUTO 32012KT 10SM FEW022 SCT037 SCT055 08/04 A3001 RMK AO2 RAB02E22 SLP164 P0001 T00780039
KCEC 181456Z AUTO 34011G17KT 10SM FEW021 SCT033 BKN039 08/04 A3001 RMK AO2 PK WND 32028/1410 RAB04E15 SLP162 P0000 60003 T00830039 56004
KCEC 181356Z AUTO 32012G17KT 10SM FEW031 OVC055 09/04 A3001 RMK AO2 RAE27 SLP163 P0003 T00890044
KCEC 181256Z AUTO 32011KT 10SM -RA FEW028 BKN050 OVC070 09/04 A3001 RMK AO2 RAB51 SLP163 P0000 T00890044
KCEC 181156Z AUTO 32010KT 10SM FEW032 BKN050 OVC055 09/05 A3002 RMK AO2 RAE27 SLP166 P0004 60008 70017 T00890050 10100 20083 57009
KCEC 181056Z AUTO 32008KT 10SM -RA FEW021 BKN039 OVC075 09/06 A3003 RMK AO2 RAB41 SLP169 P0003 T00890056
KCEC 180956Z AUTO 30008KT 10SM FEW030 OVC065 09/06 A3004 RMK AO2 SLP171 T00940056
KCEC 180856Z AUTO 31006KT 10SM FEW020 FEW026 SCT065 09/06 A3004 RMK AO2 SLP174 60001 T00890056 57005
KCEC 180853Z AUTO 32006KT 10SM FEW020 SCT026 BKN065 09/06 A3005 RMK AO2
KCEC 180827Z AUTO 32011KT 10SM FEW020 BKN029 OVC044 10/07 A3006 RMK AO2 T01000067
KCEC 180756Z AUTO 31010KT 9SM FEW018 SCT024 OVC037 09/07 A3006 RMK AO2 SLP179 T00940072 401110061
KCEC 180749Z AUTO 31012KT 10SM FEW021 SCT027 OVC039 09/07 A3006 RMK AO2 T00940067
KCEC 180716Z AUTO 31010KT 10SM FEW009 SCT017 OVC025 10/08 A3006 RMK AO2 T01000078
KCEC 180656Z AUTO 31012KT 10SM FEW010 BKN026 OVC045 10/08 A3006 RMK AO2 RAE33 SLP179 P0001 T01000078
KCEC 180641Z AUTO 30011KT 9SM FEW007 BKN022 OVC041 09/08 A3006 RMK AO2 RAE33 P0001 T00940078
KCEC 180623Z AUTO 28010KT 8SM -RA SCT007 BKN013 OVC025 10/08 A3006 RMK AO2 P0001 T01000083
KCEC 180615Z AUTO 28010KT 6SM -RA BR BKN005 BKN016 OVC022 10/08 A3006 RMK AO2 P0001 T01000083
KCEC 180602Z AUTO 30006KT 3SM RA BR SCT005 BKN015 OVC026 10/08 A3006 RMK AO2 P0001 T01000083
KCEC 180556Z AUTO 30008KT 4SM -RA BR BKN005 BKN013 OVC017 11/09 A3007 RMK AO2 RAB13 SLP182 P0004 60008 T01060089 10111 20100 58006
KCEC 180516Z AUTO 21009KT 6SM -RA BR SCT007 BKN011 OVC022 11/09 A3007 RMK AO2 RAB13 P0001 T01060089
KCEC 180456Z AUTO 20010KT 10SM FEW005 BKN017 OVC030 11/08 A3007 RMK AO2 SLP182 T01060083
KCEC 180431Z AUTO 20009KT 10SM FEW006 BKN016 10/08 A3007 RMK AO2 T01000083
KCEC 180356Z AUTO 23007KT 10SM FEW006 BKN043 BKN050 10/08 A3008 RMK AO2 SLP187 T01000083
KCEC 180354Z AUTO 22007KT 10SM FEW006 BKN043 BKN050 10/08 A3008 RMK AO2
KCEC 180344Z AUTO 22009KT 10SM SCT010 BKN041 OVC050 11/08 A3009 RMK AO2 T01060083
KCEC 180323Z AUTO 22006KT 10SM FEW007 BKN014 OVC100 11/08 A3010 RMK AO2 T01060083
KCEC 180256Z AUTO 23005KT 10SM SCT035 BKN043 OVC049 11/08 A3010 RMK AO2 SLP194 60004 T01060083 56015
KCEC 180242Z AUTO 25005KT 10SM FEW017 SCT029 OVC034 11/08 A3011 RMK AO2 T01060078
KCEC 180156Z AUTO 24005KT 5SM BR OVC015 10/08 A3011 RMK AO2 RAE11 SLP198 P0001 T01000083
KCEC 180137Z AUTO 26007KT 8SM BKN016 OVC021 11/08 A3011 RMK AO2 RAE11 P0001 T01060078
KCEC 180107Z AUTO 24006KT 3SM -RA BR SCT005 OVC013 11/09 A3012 RMK AO2 P0001 T01060089
KCEC 180102Z AUTO 24007KT 2SM -RA BR BKN005 OVC013 11/09 A3013 RMK AO2 P0001 T01060089
KCEC 180056Z AUTO 25006KT 1 3/4SM -RA BR OVC004 11/09 A3013 RMK AO2 RAB2357 SLP204 P0003 T01060089
KCEC 180049Z AUTO 25005KT 2SM -RA BR OVC004 11/09 A3013 RMK AO2 RAB2357 P0003 T01060094
KCEC 180026Z AUTO 22005KT 1 1/2SM -RA BR OVC004 11/09 A3014 RMK AO2 RAB2357 P0002 T01060094
KCEC 180013Z AUTO 24006KT 2SM -RA BR OVC003 11/09 A3015 RMK AO2 RAB2357 P0001 T01060094
KCEC 180002Z AUTO 21011KT 1 1/4SM -RA BR OVC004 11/09 A3014 RMK AO2 RAB2357 P0000 T01110094
KCEC 172356Z AUTO 19011KT 2SM BR OVC004 11/09 A3015 RMK AO2 RAB10E52 SLP209 P0001 60001 T01110094 10111 20100 55010
KCEC 172354Z AUTO 18010KT 2SM BR OVC004 11/09 A3015 RMK AO2 RAB10E52 P0001
KCEC 172339Z AUTO 17009KT 1 1/2SM -RA BR OVC004 11/09 A3015 RMK AO2 RAB10 P0001 T01110094
KCEC 172331Z AUTO 17010KT 1 1/2SM -RA BR SCT004 OVC009 11/09 A3015 RMK AO2 RAB10 P0000 T01110094
KCEC 172316Z AUTO 18010KT 1 3/4SM -RA BR SCT005 OVC013 11/09 A3016 RMK AO2 RAB10 P0000 T01110094
KCEC 172309Z AUTO 17010KT 2SM BR FEW005 OVC013 11/09 A3015 RMK AO2 T01110089
KCEC 172304Z AUTO 17010KT 2SM BR OVC015 11/09 A3015 RMK AO2 T01110089
KCEC 172256Z AUTO 17011KT 3SM BR OVC017 11/08 A3016 RMK AO2 SLP213 T01060083
KCEC 172211Z AUTO 18011KT 6SM HZ FEW012 BKN016 OVC029 11/08 A3017 RMK AO2 T01110078
KCEC 172156Z AUTO 17011KT 5SM HZ FEW005 OVC014 11/08 A3018 RMK AO2 SLP219 T01060078
KCEC 172132Z AUTO 16011KT 3SM BR FEW006 OVC018 11/08 A3019 RMK AO2 T01060083
KCEC 172056Z AUTO 17011KT 3SM HZ FEW011 OVC016 11/08 A3022 RMK AO2 SLP233 T01110078 58015
KCEC 172031Z AUTO 19012KT 10SM BKN013 OVC021 11/07 A3023 RMK AO2 T01110067
KCEC 171956Z AUTO 18010KT 10SM BKN015 OVC026 11/07 A3024 RMK AO2 SLP241 T01110067
KCEC 171937Z AUTO 17008KT 10SM BKN016 OVC030 11/06 A3025 RMK AO2 T01110061
KCEC 171856Z AUTO 16009KT 10SM BKN034 BKN042 OVC050 11/06 A3025 RMK AO2 SLP244 T01060061
KCEC 171756Z AUTO 16006KT 10SM OVC047 10/07 A3026 RMK AO2 SLP248 T01000067 10100 20061 50003
KCEC 171656Z AUTO 00000KT 10SM OVC050 09/06 A3026 RMK AO2 SLP249 T00940061
KCEC 171556Z AUTO 11003KT 10SM OVC050 08/04 A3026 RMK AO2 SLP247 T00830044
KCEC 171456Z AUTO 10003KT 10SM FEW027 SCT034 OVC048 07/04 A3025 RMK AO2 SLP245 T00720044 58012
KCEC 171356Z AUTO 11004KT 10SM OVC047 07/04 A3027 RMK AO2 SLP251 T00720044
KCEC 171256Z AUTO 08005KT 10SM OVC050 07/04 A3028 RMK AO2 SLP254 T00720044
KCEC 171156Z AUTO 10003KT 10SM CLR 07/05 A3029 RMK AO2 SLP257 T00720050 10100 20067 56018
KCEC 171056Z AUTO 12004KT 10SM BKN045 07/06 A3030 RMK AO2 SLP263 T00720056
KCEC 170956Z AUTO 13003KT 10SM OVC050 08/06 A3032 RMK AO2 SLP269 T00780061
KCEC 170856Z AUTO 00000KT 10SM CLR 08/06 A3034 RMK AO2 SLP275 T00780056 58008
KCEC 170756Z AUTO 00000KT 10SM BKN050 BKN060 09/06 A3035 RMK AO2 SLP277 T00890061 401280033
KCEC 170656Z AUTO 36003KT 10SM OVC060 09/07 A3036 RMK AO2 SLP282 T00940067